createdAt,value
2022-09-06T00:00:35.946Z,19.44
2022-09-06T00:05:41.418Z,19.43
2022-09-06T00:10:44.106Z,19.34
2022-09-06T00:15:47.108Z,19.32
2022-09-06T00:20:51.109Z,19.24
2022-09-06T00:25:53.861Z,19.20
2022-09-06T00:30:57.225Z,19.13
2022-09-06T00:36:01.704Z,19.05
2022-09-06T00:41:04.818Z,18.95
2022-09-06T00:46:09.610Z,18.96
2022-09-06T00:51:14.726Z,18.97
2022-09-06T00:56:17.434Z,18.90
2022-09-06T01:01:20.380Z,18.83
2022-09-06T01:06:27.350Z,18.86
2022-09-06T01:11:49.573Z,18.85
2022-09-06T01:16:58.434Z,18.77
2022-09-06T01:22:14.402Z,18.67
2022-09-06T01:27:50.076Z,18.57
2022-09-06T01:32:58.067Z,18.49
2022-09-06T01:38:01.164Z,18.61
2022-09-06T01:43:08.993Z,18.65
2022-09-06T01:48:28.905Z,18.55
2022-09-06T01:53:45.876Z,18.51
2022-09-06T01:59:12.427Z,18.40
2022-09-06T02:04:21.670Z,18.34
2022-09-06T02:09:26.941Z,18.27
2022-09-06T02:14:34.036Z,18.18
2022-09-06T02:19:41.044Z,18.06
2022-09-06T02:24:45.588Z,18.07
2022-09-06T02:29:48.364Z,18.03
2022-09-06T02:34:53.831Z,17.97
2022-09-06T02:39:56.704Z,17.93
2022-09-06T02:44:59.332Z,17.97
2022-09-06T02:50:03.407Z,17.98
2022-09-06T02:55:07.262Z,18.10
2022-09-06T03:00:11.458Z,18.17
2022-09-06T03:05:15.543Z,18.02
2022-09-06T03:10:20.476Z,18.06
2022-09-06T03:15:23.083Z,18.12
2022-09-06T03:20:27.250Z,18.21
2022-09-06T03:25:29.912Z,18.06
2022-09-06T03:30:32.745Z,17.97
2022-09-06T03:35:36.779Z,17.96
2022-09-06T03:40:39.492Z,17.89
2022-09-06T03:45:46.770Z,17.87
2022-09-06T03:50:52.756Z,17.77
2022-09-06T03:55:57.512Z,17.69
2022-09-06T04:01:05.577Z,17.60
2022-09-06T04:06:10.082Z,17.52
2022-09-06T04:11:12.746Z,17.44
2022-09-06T04:16:17.601Z,17.56
2022-09-06T04:21:21.739Z,17.52
2022-09-06T04:26:24.472Z,17.47
2022-09-06T04:31:27.469Z,17.41
2022-09-06T04:36:31.463Z,17.42
2022-09-06T04:41:34.118Z,17.37
2022-09-06T04:46:36.830Z,17.33
2022-09-06T04:51:40.955Z,17.32
2022-09-06T04:56:43.630Z,17.29
2022-09-06T05:01:46.305Z,17.20
2022-09-06T05:06:50.627Z,17.24
2022-09-06T05:11:53.641Z,17.30
2022-09-06T05:16:56.407Z,17.27
2022-09-06T05:22:00.441Z,17.36
2022-09-06T05:27:04.377Z,17.32
2022-09-06T05:32:07.458Z,17.37
2022-09-06T05:37:11.481Z,17.48
2022-09-06T05:42:19.015Z,17.60
2022-09-06T05:47:22.011Z,17.63
2022-09-06T05:52:25.994Z,17.54
2022-09-06T05:57:31.436Z,17.54
2022-09-06T06:02:34.130Z,17.57
2022-09-06T06:07:38.131Z,17.57
2022-09-06T06:12:40.802Z,17.54
2022-09-06T06:17:43.451Z,17.57
2022-09-06T06:22:47.406Z,17.63
2022-09-06T06:27:50.124Z,17.68
2022-09-06T06:32:52.767Z,17.70
2022-09-06T06:37:57.041Z,17.81
2022-09-06T06:43:00.399Z,17.91
2022-09-06T06:48:03.559Z,18.01
2022-09-06T06:53:07.540Z,18.02
2022-09-06T06:58:10.333Z,18.12
2022-09-06T07:03:14.017Z,18.15
2022-09-06T07:08:18.395Z,18.20
2022-09-06T07:13:21.173Z,18.31
2022-09-06T07:18:23.973Z,18.40
2022-09-06T07:28:53.296Z,18.59
2022-09-06T07:33:56.130Z,18.70
2022-09-06T07:39:00.360Z,18.71
2022-09-06T07:44:03.757Z,18.79
2022-09-06T07:49:06.791Z,18.76
2022-09-06T07:54:29.906Z,18.72
2022-09-06T07:59:33.395Z,18.88
2022-09-06T08:04:36.065Z,19.10
2022-09-06T08:09:40.112Z,19.21
2022-09-06T08:14:42.774Z,19.30
2022-09-06T08:19:45.449Z,19.34
2022-09-06T08:24:49.504Z,19.59
2022-09-06T08:29:52.351Z,19.77
2022-09-06T08:34:55.083Z,20.05
2022-09-06T08:39:59.312Z,20.20
2022-09-06T08:45:04.173Z,20.25
2022-09-06T08:50:08.437Z,20.22
2022-09-06T08:55:21.242Z,20.08
2022-09-06T09:00:24.063Z,20.04
2022-09-06T09:05:29.237Z,20.22
2022-09-06T09:10:41.915Z,20.40
2022-09-06T09:15:44.644Z,20.69
2022-09-06T09:20:47.294Z,21.01
2022-09-06T09:25:53.542Z,21.06
2022-09-06T09:30:57.791Z,20.98
2022-09-06T09:36:02.421Z,21.05
2022-09-06T09:41:08.042Z,21.19
2022-09-06T09:46:16.799Z,21.34
2022-09-06T09:51:26.609Z,21.49
2022-09-06T09:56:35.588Z,21.73
2022-09-06T10:01:39.642Z,21.88
2022-09-06T10:12:07.368Z,22.12
2022-09-06T10:17:19.465Z,22.31
2022-09-06T10:22:27.538Z,22.48
2022-09-06T10:27:33.136Z,22.66
2022-09-06T10:32:42.435Z,22.97
2022-09-06T10:38:04.531Z,23.21
2022-09-06T10:43:10.334Z,23.57
2022-09-06T10:48:18.120Z,24.15
2022-09-06T10:53:33.846Z,24.37
2022-09-06T11:04:12.775Z,23.38
2022-09-06T11:09:23.860Z,23.02
2022-09-06T11:14:28.730Z,22.77
2022-09-06T11:19:34.860Z,22.60
2022-09-06T11:24:48.716Z,22.41
2022-09-06T11:29:56.444Z,22.29
2022-09-06T11:35:00.827Z,22.14
2022-09-06T11:45:45.429Z,21.87
2022-09-06T11:51:03.295Z,21.72
2022-09-06T11:56:25.726Z,21.61
2022-09-06T12:01:38.266Z,21.49
2022-09-06T12:06:43.648Z,21.42
2022-09-06T12:11:48.568Z,21.44
2022-09-06T12:17:28.124Z,21.46
2022-09-06T12:23:02.199Z,21.35
2022-09-06T12:28:06.384Z,21.25
2022-09-06T12:33:13.928Z,21.25
2022-09-06T12:38:18.190Z,21.50
2022-09-06T12:43:21.097Z,21.69
2022-09-06T12:48:28.726Z,21.73
2022-09-06T12:53:34.398Z,21.94
2022-09-06T12:58:38.683Z,21.95
2022-09-06T13:03:45.169Z,21.95
2022-09-06T13:08:50.992Z,22.12
2022-09-06T13:13:55.121Z,22.42
2022-09-06T13:19:11.692Z,22.58
2022-09-06T13:24:23.025Z,22.53
2022-09-06T13:29:27.477Z,22.48
2022-09-06T13:34:32.117Z,22.43
2022-09-06T13:39:38.562Z,22.44
2022-09-06T13:44:41.394Z,22.66
2022-09-06T13:49:44.235Z,22.99
2022-09-06T13:54:48.748Z,23.00
2022-09-06T13:59:51.371Z,22.98
2022-09-06T14:04:54.026Z,23.05
2022-09-06T14:09:58.063Z,23.55
2022-09-06T14:15:00.891Z,24.13
2022-09-06T14:20:04.187Z,24.39
2022-09-06T14:25:09.437Z,24.23
2022-09-06T14:30:13.560Z,24.13
2022-09-06T14:35:16.358Z,23.72
2022-09-06T14:40:20.484Z,23.42
2022-09-06T14:45:23.238Z,23.27
2022-09-06T14:50:25.941Z,23.14
2022-09-06T14:55:30.723Z,23.04
2022-09-06T15:00:33.683Z,23.03
2022-09-06T15:05:36.511Z,22.98
2022-09-06T15:10:41.024Z,22.67
2022-09-06T15:15:44.127Z,22.42
2022-09-06T15:20:47.071Z,22.36
2022-09-06T15:25:52.310Z,22.38
2022-09-06T15:30:55.829Z,22.38
2022-09-06T15:36:00.521Z,22.55
2022-09-06T15:41:09.348Z,22.41
2022-09-06T15:46:12.316Z,22.18
2022-09-06T15:51:16.407Z,21.97
2022-09-06T15:56:20.642Z,22.09
2022-09-06T16:01:24.453Z,22.46
2022-09-06T16:06:28.637Z,22.52
2022-09-06T16:11:35.715Z,22.74
2022-09-06T16:16:40.523Z,23.01
2022-09-06T16:21:44.440Z,22.95
2022-09-06T16:26:48.584Z,22.97
2022-09-06T16:31:54.090Z,22.96
2022-09-06T16:36:57.087Z,22.86
2022-09-06T16:42:01.265Z,22.64
2022-09-06T16:47:04.578Z,22.47
2022-09-06T16:52:07.345Z,22.38
2022-09-06T16:57:11.417Z,22.36
2022-09-06T17:02:14.495Z,22.31
2022-09-06T17:07:17.821Z,22.14
2022-09-06T17:12:22.191Z,21.97
2022-09-06T17:17:24.885Z,21.72
2022-09-06T17:22:27.734Z,21.44
2022-09-06T17:27:32.089Z,21.17
2022-09-06T17:32:36.575Z,20.99
2022-09-06T17:37:39.332Z,20.85
2022-09-06T17:42:43.464Z,20.69
2022-09-06T17:47:46.197Z,20.55
2022-09-06T17:52:51.528Z,20.41
2022-09-06T17:57:56.084Z,20.29
2022-09-06T18:02:59.133Z,20.20
2022-09-06T18:08:02.247Z,20.11
2022-09-06T18:13:07.101Z,20.06
2022-09-06T18:18:10.059Z,19.96
2022-09-06T18:23:12.932Z,19.86
2022-09-06T18:28:17.119Z,19.81
2022-09-06T18:33:19.931Z,19.78
2022-09-06T18:38:22.778Z,19.73
2022-09-06T18:43:29.527Z,19.65
2022-09-06T18:48:33.706Z,19.58
2022-09-06T18:53:36.628Z,19.52
2022-09-06T18:58:41.036Z,19.46
2022-09-06T19:03:44.389Z,19.40
2022-09-06T19:08:47.838Z,19.31
2022-09-06T19:13:53.651Z,19.23
2022-09-06T19:18:57.369Z,19.20
2022-09-06T19:24:01.634Z,19.17
2022-09-06T19:29:09.118Z,19.10
2022-09-06T19:34:13.489Z,19.02
2022-09-06T19:39:17.482Z,19.00
2022-09-06T19:44:22.209Z,18.92
2022-09-06T19:49:25.154Z,18.89
2022-09-06T19:54:28.327Z,18.85
2022-09-06T19:59:33.448Z,18.82
2022-09-06T20:04:36.158Z,18.76
2022-09-06T20:09:38.947Z,18.71
2022-09-06T20:14:43.367Z,18.69
2022-09-06T20:19:46.223Z,18.64
2022-09-06T20:24:48.919Z,18.63
2022-09-06T20:29:53.021Z,18.65
2022-09-06T20:34:55.697Z,18.63
2022-09-06T20:39:58.490Z,18.61
2022-09-06T20:45:03.527Z,18.58
2022-09-06T20:50:07.172Z,18.56
2022-09-06T20:55:10.618Z,18.51
2022-09-06T21:00:15.948Z,18.45
2022-09-06T21:05:18.644Z,18.40
2022-09-06T21:10:21.373Z,18.35
2022-09-06T21:15:25.476Z,18.31
2022-09-06T21:20:28.239Z,18.23
2022-09-06T21:25:31.128Z,18.19
2022-09-06T21:30:35.507Z,18.14
2022-09-06T21:35:38.400Z,18.11
2022-09-06T21:40:41.185Z,18.12
2022-09-06T21:45:45.786Z,18.17
2022-09-06T21:50:49.020Z,18.16
2022-09-06T21:55:52.000Z,18.16
2022-09-06T22:00:59.190Z,18.11
2022-09-06T22:06:09.514Z,18.06
2022-09-06T22:11:14.469Z,18.02
2022-09-06T22:16:22.697Z,17.96
2022-09-06T22:21:25.683Z,17.86
2022-09-06T22:26:30.149Z,17.84
2022-09-06T22:31:35.172Z,17.86
2022-09-06T22:36:38.071Z,17.84
2022-09-06T22:41:40.861Z,17.75
2022-09-06T22:46:45.219Z,17.64
2022-09-06T22:51:48.131Z,17.57
2022-09-06T22:56:50.996Z,17.62
2022-09-06T23:01:55.072Z,17.65
2022-09-06T23:06:57.832Z,17.56
2022-09-06T23:12:01.250Z,17.45
2022-09-06T23:17:05.527Z,17.41
2022-09-06T23:22:08.270Z,17.38
2022-09-06T23:27:11.027Z,17.38
2022-09-06T23:32:15.144Z,17.41
2022-09-06T23:37:19.089Z,17.41
2022-09-06T23:42:22.994Z,17.38
2022-09-06T23:47:27.103Z,17.42
2022-09-06T23:52:29.917Z,17.42
2022-09-06T23:57:32.684Z,17.37
